Home > Products > Valid Products > TAF

000
FTUS46 KHNX 261127
TAFMCE
TAF
KMCE 261127Z 2612/2712 32009KT P6SM SKC
     FM261900 32015G25KT P6SM SKC
     FM270300 35006KT P6SM SKC
     FM270600 VRB03KT P6SM SKC=



000
FTUS46 KHNX 261127
TAFBFL
TAF
KBFL 261127Z 2612/2712 33005KT P6SM SCT045
      TEMPO 2612/2616 BKN045
     FM262100 30009G16KT P6SM SCT040
     FM270300 36005KT P6SM SKC
     FM270600 VRB03KT P6SM SKC=



000
FTUS46 KHNX 261127
TAFFAT
TAF
KFAT 261127Z 2612/2712 30009KT P6SM SKC
     FM262000 31012G19KT P6SM SKC
     FM270300 32007KT P6SM SKC
     FM270600 VRB03KT P6SM SKC=



000
FTUS46 KHNX 260520
TAFMCE
TAF
KMCE 260520Z 2606/2706 32007KT P6SM SCT250
     FM261500 32013KT P6SM SKC
     FM270300 30007KT P6SM SKC=



000
FTUS46 KHNX 260520
TAFMCE
TAF
KMCE 260520Z 2606/2706 32007KT P6SM SCT250
     FM261500 32013KT P6SM SKC
     FM270300 30007KT P6SM SKC=



000
FTUS46 KHNX 260520
TAFBFL
TAF
KBFL 260520Z 2606/2706 35005KT P6SM BKN040
     FM262100 30009KT P6SM SCT040
     FM270300 36005KT P6SM SKC=



000
FTUS46 KHNX 260520
TAFBFL
TAF
KBFL 260520Z 2606/2706 35005KT P6SM BKN040
     FM262100 30009KT P6SM SCT040
     FM270300 36005KT P6SM SKC=



000
FTUS46 KHNX 260520
TAFFAT
TAF
KFAT 260520Z 2606/2706 30007KT P6SM FEW040 SCT250
     FM262100 31010KT P6SM SKC=



000
FTUS46 KHNX 260520
TAFFAT
TAF
KFAT 260520Z 2606/2706 30007KT P6SM FEW040 SCT250
     FM262100 31010KT P6SM SKC=



000
FTUS46 KHNX 252320
TAFBFL
TAF
KBFL 252320Z 2600/2624 34012KT P6SM BKN040
     FM260600 32008KT P6SM BKN040
     FM262100 30009KT P6SM SCT040=



000
FTUS46 KHNX 252320
TAFFAT
TAF
KFAT 252320Z 2600/2624 31010KT P6SM SCT040
      TEMPO 2600/2603 BKN040
     FM261800 31013KT P6SM SKC=



000
FTUS46 KHNX 252320
TAFMCE
TAF
KMCE 252320Z 2600/2624 32007KT P6SM SCT040
      TEMPO 2600/2603 BKN040
     FM261500 32013KT P6SM SKC=



000
FTUS46 KHNX 252320
TAFMCE
TAF
KMCE 252320Z 2600/2624 32007KT P6SM SCT040
      TEMPO 2600/2603 BKN040
     FM261500 32013KT P6SM SKC=



000
FTUS46 KHNX 252320
TAFFAT
TAF
KFAT 252320Z 2600/2624 31010KT P6SM SCT040
      TEMPO 2600/2603 BKN040
     FM261800 31013KT P6SM SKC=



000
FTUS46 KHNX 252320
TAFBFL
TAF
KBFL 252320Z 2600/2624 34012KT P6SM BKN040
     FM260600 32008KT P6SM BKN040
     FM262100 30009KT P6SM SCT040=



000
FTUS46 KHNX 252030 AAB
TAFFAT
TAF AMD
KFAT 252030Z 2521/2618 13006KT P6SM VCSH BKN020
     FM260100 31010KT P6SM SCT020
     FM261400 31012KT P6SM SKC=



000
FTUS46 KHNX 251811 AAA
TAFFAT
TAF AMD
KFAT 251811Z 2518/2618 13012KT P6SM -RA SCT015 OVC035
      TEMPO 2518/2520 2SM RA OVC015
     FM252100 31010KT P6SM VCSH BKN020
     FM260100 31010KT P6SM SCT020
     FM261400 31012KT P6SM SKC=



000
FTUS46 KHNX 251725
TAFMCE
TAF
KMCE 251725Z 2518/2618 32007KT P6SM VCSH BKN015
      TEMPO 2518/2522 SCT015
     FM252200 32007KT P6SM SCT015
     FM261200 32012KT P6SM SKC=



000
FTUS46 KHNX 251725
TAFFAT
TAF
KFAT 251725Z 2518/2618 13012KT P6SM -RA SCT015 OVC035
     FM252100 31010KT P6SM VCSH BKN020
     FM260100 31010KT P6SM SCT020
     FM261400 31012KT P6SM SKC=



000
FTUS46 KHNX 251725
TAFBFL
TAF
KBFL 251725Z 2518/2618 12006KT P6SM -RA SCT015 OVC035
     FM260000 32010KT P6SM VCSH BKN020
     FM260600 32008KT P6SM BKN030=



000
FTUS46 KHNX 251437 AAA
TAFFAT
TAF AMD
KFAT 251437Z 2515/2612 VRB04KT 3SM RA BR BKN025
     FM251600 VRB04KT P6SM -RA BKN030
     FM251900 VRB04KT P6SM VCSH SCT040
     FM252100 31010KT P6SM SCT040=



000
FTUS46 KHNX 251433 AAA
TAFMCE
TAF AMD
KMCE 251433Z 2515/2612 VRB04KT P6SM -SHRA BKN015
     FM251800 VRB06KT P6SM BKN020
     FM252100 32007KT P6SM BKN050=



000
FTUS46 KHNX 251433 AAA
TAFMCE
TAF AMD
KMCE 251433Z 2515/2612 VRB04KT P6SM -SHRA BKN015
     FM251800 VRB06KT P6SM BKN020
     FM252100 32007KT P6SM BKN050=



000
FTUS46 KHNX 251120
TAFMCE
TAF
KMCE 251120Z 2512/2612 26006KT P6SM -RA SCT025 BKN035
     FM251400 VRB04KT P6SM VCSH BKN035
     FM252100 32007KT P6SM BKN050=



000
FTUS46 KHNX 251120
TAFFAT
TAF
KFAT 251120Z 2512/2612 VRB04KT P6SM -RA BKN050
     FM251600 VRB04KT P6SM -SHRA BKN040
     FM251800 VRB04KT P6SM VCSH SCT040
     FM252100 31010KT P6SM SCT040=



000
FTUS46 KHNX 251120
TAFBFL
TAF
KBFL 251120Z 2512/2612 30008KT P6SM SCT070 SCT120
     FM251500 VRB06KT P6SM -SHRA BKN050
     FM252300 32010KT P6SM VCSH SCT040
     FM260400 32010KT P6SM SCT040=



000
FTUS46 KHNX 250918 AAA
TAFFAT
TAF AMD
KFAT 250918Z 2509/2606 32010KT P6SM SCT050 BKN100
     FM251200 VRB04KT P6SM -RA BKN050
     FM251800 VRB04KT P6SM -SHRA BKN040
     FM252000 32010KT P6SM VCSH SCT040=



000
FTUS46 KHNX 250918 AAA
TAFFAT
TAF AMD
KFAT 250918Z 2509/2606 32010KT P6SM SCT050 BKN100
     FM251200 VRB04KT P6SM -RA BKN050
     FM251800 VRB04KT P6SM -SHRA BKN040
     FM252000 32010KT P6SM VCSH SCT040=



000
FTUS46 KHNX 250911 AAA
TAFMCE
TAF AMD
KMCE 250911Z 2509/2606 26006KT P6SM -RA BKN040
     FM251400 VRB04KT P6SM VCSH BKN040
     FM252100 32007KT P6SM BKN050=



000
FTUS46 KHNX 250537
TAFBFL
TAF
KBFL 250537Z 2506/2606 30008KT P6SM SCT070 SCT120
     FM251800 32012KT P6SM SCT050 OVC090
     FM260400 36007KT P6SM BKN050=



000
FTUS46 KHNX 250537
TAFMCE
TAF
KMCE 250537Z 2506/2606 32007KT P6SM SCT100
     FM251000 VRB04KT P6SM OVC090
     FM251200 VRB04KT P6SM -SHRA OVC050
     FM252100 32007KT P6SM BKN050=



000
FTUS46 KHNX 250537
TAFFAT
TAF
KFAT 250537Z 2506/2606 32010G20KT P6SM SCT120
     FM251000 VRB05KT P6SM OVC090
     FM251400 VRB05KT P6SM -SHRA OVC050
     FM252100 30009KT P6SM BKN050=



000
FTUS46 KHNX 242320
TAFMCE
TAF
KMCE 242320Z 2500/2524 32010G15KT P6SM SCT110
     FM251000 VRB04KT P6SM OVC090
      TEMPO 2512/2516 -RA OVC050=



000
FTUS46 KHNX 242320
TAFBFL
TAF
KBFL 242320Z 2500/2524 33010G15KT P6SM SCT110
     FM251500 32015G20KT 5SM BLDU OVC090=



000
FTUS46 KHNX 242320
TAFFAT
TAF
KFAT 242320Z 2500/2524 32010G15KT P6SM SCT110 BKN200
     FM251100 VRB06KT P6SM OVC090
      TEMPO 2513/2517 -SHRA OVC050=



000
FTUS46 KHNX 241827 RRA
TAFBFL
TAF
KBFL 241827Z 2418/2518 33010G15KT P6SM SCT110
     FM251500 32015G20KT 5SM BLDU OVC090=



000
FTUS46 KHNX 241827 RRA
TAFFAT
TAF
KFAT 241827Z 2418/2518 32010G15KT P6SM SCT110 BKN200
     FM251100 VRB06KT P6SM OVC090
      TEMPO 2513/2517 -SHRA OVC050=



000
FTUS46 KHNX 241827 RRA
TAFMCE
TAF
KMCE 241827Z 2418/2518 32010G15KT P6SM SCT110
     FM251000 VRB04KT P6SM OVC090
      TEMPO 2512/2516 -RA OVC050=



000
FTUS46 KHNX 241424 AAA
TAFMCE
TAF AMD
KMCE 241424Z 2414/2512 26006KT P6SM SCT050
     FM241800 32010KT P6SM SCT050
      TEMPO 2418/2422 32012G19KT BKN050
     FM250800 VRB04KT P6SM OVC060 PROB30 2508/2512 5SM -RA BR
      BKN040=



000
FTUS46 KHNX 241424 AAA
TAFMCE
TAF AMD
KMCE 241424Z 2414/2512 26006KT P6SM SCT050
     FM241800 32010KT P6SM SCT050
      TEMPO 2418/2422 32012G19KT BKN050
     FM250800 VRB04KT P6SM OVC060 PROB30 2508/2512 5SM -RA BR
      BKN040=



000
FTUS46 KHNX 241145
TAFFAT
TAF
KFAT 241145Z 2412/2512 32008KT P6SM VCTS BKN060CB
     FM241700 32011G19KT P6SM SCT050 BKN100
      TEMPO 2417/2421 BKN050
     FM250800 VRB04KT P6SM OVC070 PROB30 2508/2512 5SM -RA BR
      BKN050=



000
FTUS46 KHNX 241145
TAFBFL
TAF
KBFL 241145Z 2412/2512 35006KT P6SM SCT070 BKN200
      TEMPO 2413/2417 BKN070
     FM241800 32014G20KT P6SM SCT070 BKN100
     FM250300 35007KT P6SM BKN060=



000
FTUS46 KHNX 241145
TAFMCE
TAF
KMCE 241145Z 2412/2512 26006KT P6SM VCTS SCT050 BKN090CB
     FM241700 32010KT P6SM SCT050
      TEMPO 2417/2421 32012G19KT BKN050
     FM250800 VRB04KT P6SM OVC060 PROB30 2508/2512 5SM -RA BR
      BKN040=



000
FTUS46 KHNX 240520
TAFFAT
TAF
KFAT 240520Z 2406/2506 VRB04KT P6SM BKN200
     FM241700 32011KT P6SM BKN100 OVC200=



000
FTUS46 KHNX 240520
TAFMCE
TAF
KMCE 240520Z 2406/2506 26006KT P6SM BKN200
     FM241700 32010KT P6SM OVC250=



000
FTUS46 KHNX 240520
TAFBFL
TAF
KBFL 240520Z 2406/2506 30006KT P6SM BKN200
     FM241500 32014G20KT P6SM BKN100 OVC250=



000
FTUS46 KHNX 232320
TAFMCE
TAF
KMCE 232320Z 2400/2424 30005KT P6SM BKN200
     FM241700 32010KT P6SM OVC250=



000
FTUS46 KHNX 232320
TAFBFL
TAF
KBFL 232320Z 2400/2424 32010KT P6SM BKN100 OVC200
     FM240600 35006KT P6SM BKN200
     FM241600 32017G23KT P6SM OVC250=



000
FTUS46 KHNX 232320
TAFFAT
TAF
KFAT 232320Z 2400/2424 30008KT P6SM BKN200
     FM241700 32011KT P6SM OVC100
     FM242200 30013G19KT P6SM OVC050=



000
FTUS46 KHNX 231720
TAFBFL
TAF
KBFL 231720Z 2318/2418 34007KT P6SM BKN200
     FM232100 32010KT P6SM BKN100 OVC200
     FM240600 35006KT P6SM BKN200
     FM241600 32017G23KT P6SM OVC250=



000
FTUS46 KHNX 231720
TAFBFL
TAF
KBFL 231720Z 2318/2418 34007KT P6SM BKN200
     FM232100 32010KT P6SM BKN100 OVC200
     FM240600 35006KT P6SM BKN200
     FM241600 32017G23KT P6SM OVC250=



000
FTUS46 KHNX 231720
TAFMCE
TAF
KMCE 231720Z 2318/2418 30005KT P6SM BKN200
     FM241700 32010G16KT P6SM OVC250=



000
FTUS46 KHNX 231720
TAFMCE
TAF
KMCE 231720Z 2318/2418 30005KT P6SM BKN200
     FM241700 32010G16KT P6SM OVC250=



000
FTUS46 KHNX 231720
TAFFAT
TAF
KFAT 231720Z 2318/2418 30008KT P6SM BKN200
     FM241700 32011KT P6SM OVC100=



000
FTUS46 KHNX 231720
TAFFAT
TAF
KFAT 231720Z 2318/2418 30008KT P6SM BKN200
     FM241700 32011KT P6SM OVC100=



    US Dept of Commerce
    National Oceanic and Atmospheric Administration
    National Weather Service
    1325 East West Highway
    Silver Spring, MD 20910
    Page Author: NWS Internet Services Team
Disclaimer
Information Quality
Credits
Glossary
Privacy Policy
Freedom of Information Act (FOIA)
About Us
Career Opportunities